createdAt,value
2022-12-13T00:00:24.211Z,22.4
2022-12-13T00:05:48.294Z,22.4
2022-12-13T00:11:26.258Z,22.4
2022-12-13T00:17:04.673Z,22.4
2022-12-13T00:22:42.388Z,22.4
2022-12-13T00:28:27.092Z,22.4
2022-12-13T00:34:47.713Z,22.3
2022-12-13T00:40:09.812Z,22.3
2022-12-13T00:45:48.773Z,22.3
2022-12-13T00:51:26.999Z,22.3
2022-12-13T00:57:04.384Z,22.3
2022-12-13T01:02:33.900Z,22.3
2022-12-13T01:08:49.451Z,22.3
2022-12-13T01:14:27.512Z,22.3
2022-12-13T01:20:05.905Z,22.3
2022-12-13T01:25:45.949Z,22.3
2022-12-13T01:31:12.552Z,22.2
2022-12-13T01:37:01.659Z,22.2
2022-12-13T01:43:31.284Z,22.2
2022-12-13T01:49:19.443Z,22.1
2022-12-13T01:55:10.559Z,22.1
2022-12-13T02:00:38.540Z,22.1
2022-12-13T02:05:57.210Z,22.1
2022-12-13T02:11:43.807Z,22.1
2022-12-13T02:17:29.360Z,22.2
2022-12-13T02:23:13.306Z,22.3
2022-12-13T02:29:30.217Z,22.4
2022-12-13T02:35:09.936Z,22.4
2022-12-13T02:40:54.079Z,22.6
2022-12-13T02:47:03.625Z,22.7
2022-12-13T02:52:45.695Z,22.7
2022-12-13T02:58:28.884Z,22.8
2022-12-13T03:04:01.938Z,22.8
2022-12-13T03:09:33.462Z,22.8
2022-12-13T03:14:57.105Z,22.8
2022-12-13T03:20:12.547Z,22.8
2022-12-13T03:26:05.168Z,22.8
2022-12-13T03:31:44.317Z,22.8
2022-12-13T03:38:02.472Z,22.8
2022-12-13T03:43:44.828Z,22.9
2022-12-13T03:49:35.001Z,22.8
2022-12-13T03:55:34.839Z,22.8
2022-12-13T04:01:25.718Z,22.9
2022-12-13T04:07:21.751Z,22.8
2022-12-13T04:13:37.754Z,22.9
2022-12-13T04:19:01.281Z,22.8
2022-12-13T04:24:50.287Z,22.8
2022-12-13T04:30:27.218Z,22.9
2022-12-13T04:35:52.636Z,22.8
2022-12-13T04:41:01.828Z,22.9
2022-12-13T04:46:48.451Z,22.8
2022-12-13T04:52:05.083Z,22.8
2022-12-13T04:57:51.271Z,22.9
2022-12-13T05:03:30.493Z,22.9
2022-12-13T05:08:50.189Z,22.9
2022-12-13T05:15:14.431Z,22.9
2022-12-13T05:20:46.770Z,22.9
2022-12-13T05:26:31.529Z,22.9
2022-12-13T05:32:31.061Z,22.8
2022-12-13T05:38:27.561Z,22.8
2022-12-13T05:44:32.986Z,22.8
2022-12-13T05:49:39.946Z,22.8
2022-12-13T05:55:22.552Z,22.8
2022-12-13T06:01:20.069Z,22.8
2022-12-13T06:07:14.005Z,22.8
2022-12-13T06:15:00.697Z,22.8
2022-12-13T06:20:57.581Z,22.8
2022-12-13T06:26:25.841Z,22.8
2022-12-13T06:32:34.784Z,22.8
2022-12-13T06:38:47.915Z,22.8
2022-12-13T06:44:25.330Z,22.8
2022-12-13T06:50:22.617Z,22.8
2022-12-13T06:56:13.438Z,22.7
2022-12-13T07:02:24.603Z,22.7
2022-12-13T07:08:39.163Z,22.7
2022-12-13T07:14:27.113Z,22.7
2022-12-13T07:20:17.257Z,22.7
2022-12-13T07:26:33.476Z,22.6
2022-12-13T07:32:18.430Z,22.6
2022-12-13T07:38:18.484Z,22.6
2022-12-13T07:44:02.991Z,22.6
2022-12-13T07:49:51.341Z,22.6
2022-12-13T07:56:05.508Z,22.6
2022-12-13T08:01:54.078Z,22.6
2022-12-13T08:08:01.737Z,22.6
2022-12-13T08:13:29.084Z,22.6
2022-12-13T08:19:37.713Z,22.6
2022-12-13T08:26:17.247Z,22.5
2022-12-13T08:32:09.852Z,22.5
2022-12-13T08:37:54.589Z,22.5
2022-12-13T08:43:43.368Z,22.5
2022-12-13T08:49:34.318Z,22.5
2022-12-13T08:55:31.283Z,22.4
2022-12-13T09:01:10.011Z,22.4
2022-12-13T09:07:18.683Z,22.4
2022-12-13T09:14:23.474Z,22.4
2022-12-13T09:21:31.197Z,22.3
2022-12-13T09:28:17.861Z,22.3
2022-12-13T09:34:19.137Z,22.3
2022-12-13T09:40:15.858Z,22.2
2022-12-13T09:48:07.172Z,22.1
2022-12-13T09:55:27.334Z,22.1
2022-12-13T10:01:40.126Z,22.1
2022-12-13T10:07:30.690Z,53.2
2022-12-13T10:13:16.920Z,47.1
2022-12-13T10:19:28.632Z,42.3
2022-12-13T10:26:40.946Z,43.2
2022-12-13T10:32:37.277Z,55.1
2022-12-13T10:38:15.939Z,47.6
2022-12-13T10:43:58.433Z,42.9
2022-12-13T10:49:50.721Z,39.4
2022-12-13T10:56:22.741Z,56.7
2022-12-13T11:02:18.779Z,49.8
2022-12-13T11:08:00.702Z,44.4
2022-12-13T11:14:16.567Z,48.3
2022-12-13T11:19:58.600Z,55.9
2022-12-13T11:25:46.827Z,47.9
2022-12-13T11:31:52.804Z,43.1
2022-12-13T11:37:31.788Z,52.9
2022-12-13T11:42:57.858Z,55.5
2022-12-13T11:48:47.610Z,47.9
2022-12-13T11:54:23.467Z,43.4
2022-12-13T12:01:07.579Z,43.9
2022-12-13T12:07:18.096Z,56.2
2022-12-13T12:13:29.732Z,48.2
2022-12-13T12:19:51.024Z,43.2
2022-12-13T12:26:06.214Z,39.4
2022-12-13T12:32:07.572Z,36.8
2022-12-13T12:37:52.748Z,34.6
2022-12-13T12:44:21.430Z,32.9
2022-12-13T12:52:28.946Z,31.1
2022-12-13T12:58:18.369Z,30.1
2022-12-13T13:04:22.380Z,29.2
2022-12-13T13:10:49.660Z,28.4
2022-12-13T13:17:15.465Z,27.6
2022-12-13T13:23:56.799Z,27.1
2022-12-13T13:30:17.827Z,26.1
2022-12-13T13:36:10.827Z,25.6
2022-12-13T13:41:54.235Z,25.3
2022-12-13T13:47:37.615Z,24.8
2022-12-13T13:53:53.844Z,24.4
2022-12-13T13:59:54.862Z,24.1
2022-12-13T14:05:31.887Z,23.8
2022-12-13T14:11:28.921Z,23.6
2022-12-13T14:17:27.694Z,23.4
2022-12-13T14:22:56.559Z,23.2
2022-12-13T14:28:28.335Z,23.1
2022-12-13T14:35:24.637Z,22.9
2022-12-13T14:41:11.036Z,22.7
2022-12-13T14:47:04.602Z,22.6
2022-12-13T14:53:00.125Z,22.4
2022-12-13T14:58:47.396Z,22.3
2022-12-13T15:04:35.303Z,22.3
2022-12-13T15:10:35.593Z,22.1
2022-12-13T15:16:44.915Z,22.1
2022-12-13T15:22:18.980Z,22
2022-12-13T15:28:22.140Z,21.9
2022-12-13T15:34:07.761Z,21.9
2022-12-13T15:40:37.376Z,21.9
2022-12-13T15:46:09.421Z,21.8
2022-12-13T15:52:03.760Z,21.8
2022-12-13T15:57:54.149Z,21.8
2022-12-13T16:03:26.138Z,21.8
2022-12-13T16:09:20.694Z,21.7
2022-12-13T16:15:29.027Z,21.7
2022-12-13T16:21:16.467Z,21.7
2022-12-13T16:27:24.915Z,21.6
2022-12-13T16:33:43.714Z,21.6
2022-12-13T16:39:54.528Z,21.6
2022-12-13T16:47:15.793Z,21.6
2022-12-13T16:53:17.398Z,21.6
2022-12-13T16:58:50.449Z,21.6
2022-12-13T17:04:19.433Z,21.6
2022-12-13T17:09:57.699Z,21.6
2022-12-13T17:15:59.269Z,21.6
2022-12-13T17:21:47.733Z,21.7
2022-12-13T17:27:44.896Z,21.8
2022-12-13T17:33:04.066Z,21.8
2022-12-13T17:38:44.720Z,21.7
2022-12-13T17:44:25.081Z,21.7
2022-12-13T17:50:05.004Z,21.8
2022-12-13T17:55:51.768Z,21.8
2022-12-13T18:01:15.392Z,21.8
2022-12-13T18:06:26.204Z,21.8
2022-12-13T18:12:47.299Z,21.9
2022-12-13T18:19:27.809Z,21.9
2022-12-13T18:25:03.556Z,21.9
2022-12-13T18:30:44.968Z,21.9
2022-12-13T18:36:23.394Z,22.1
2022-12-13T18:42:12.994Z,22.3
2022-12-13T18:47:54.069Z,22.5
2022-12-13T18:53:08.861Z,22.7
2022-12-13T18:58:38.512Z,22.8
2022-12-13T19:04:33.244Z,22.9
2022-12-13T19:09:54.602Z,23.1
2022-12-13T19:15:28.908Z,23.1
2022-12-13T19:21:12.283Z,23.1
2022-12-13T19:26:45.091Z,23.1
2022-12-13T19:32:24.130Z,23.2
2022-12-13T19:37:52.567Z,23.2
2022-12-13T19:43:31.297Z,23.2
2022-12-13T19:49:15.102Z,23.3
2022-12-13T19:54:54.184Z,23.3
2022-12-13T20:00:32.595Z,23.3
2022-12-13T20:05:45.400Z,23.2
2022-12-13T20:11:24.395Z,23.1
2022-12-13T20:16:55.349Z,23.1
2022-12-13T20:23:04.980Z,23
2022-12-13T20:28:16.439Z,22.9
2022-12-13T20:33:56.090Z,22.8
2022-12-13T20:39:57.205Z,22.8
2022-12-13T20:45:36.064Z,22.8
2022-12-13T20:50:47.215Z,22.7
2022-12-13T20:56:37.946Z,22.8
2022-12-13T21:02:06.134Z,22.7
2022-12-13T21:07:30.473Z,22.7
2022-12-13T21:12:53.934Z,22.7
2022-12-13T21:18:43.738Z,22.6
2022-12-13T21:24:28.515Z,22.6
2022-12-13T21:30:11.106Z,22.6
2022-12-13T21:35:49.514Z,22.6
2022-12-13T21:41:30.564Z,22.6
2022-12-13T21:47:59.504Z,22.6
2022-12-13T21:53:39.452Z,22.5
2022-12-13T21:59:53.627Z,22.4
2022-12-13T22:05:16.598Z,22.4
2022-12-13T22:10:39.465Z,22.4
2022-12-13T22:16:07.993Z,22.4
2022-12-13T22:21:52.215Z,22.4
2022-12-13T22:27:33.697Z,22.3
2022-12-13T22:32:56.902Z,22.3
2022-12-13T22:38:21.625Z,22.3
2022-12-13T22:43:59.887Z,22.3
2022-12-13T22:49:37.797Z,22.3
2022-12-13T22:55:04.755Z,22.2
2022-12-13T23:00:43.571Z,22.2
2022-12-13T23:06:22.694Z,22.2
2022-12-13T23:11:36.505Z,22.2
2022-12-13T23:16:59.038Z,22.2
2022-12-13T23:23:23.107Z,22.1
2022-12-13T23:29:00.946Z,22.1
2022-12-13T23:34:23.676Z,22.1
2022-12-13T23:39:52.457Z,22.1
2022-12-13T23:45:18.612Z,22.1
2022-12-13T23:51:04.464Z,22.1
2022-12-13T23:56:41.919Z,22.1
